Time;durP1;ratioP1;P1;durP2;ratioP2;P2;SDS_P1;SDS_P2;PMS_P1;PMS_P2;Temp;Humidity;BMP_temperature;BMP_pressure;BME280_temperature;BME280_humidity;BME280_pressure;Samples;Min_cycle;Max_cycle;Signal;HPM_P1;HPM_P2
2020/12/31 00:00:17;;;;;;;26.23;17.10;;;4.50;97.90;;;;;;5025976;28;20043;-77
2020/12/31 00:02:43;;;;;;;18.87;12.70;;;4.50;97.80;;;;;;5048996;28;20598;-77
2020/12/31 00:05:10;;;;;;;22.67;13.37;;;4.50;97.80;;;;;;5030180;28;20044;-77
2020/12/31 00:07:37;;;;;;;19.60;11.00;;;4.60;97.80;;;;;;5047794;28;20505;-77
2020/12/31 00:10:03;;;;;;;16.53;10.60;;;4.60;97.80;;;;;;5051346;28;20048;-77
2020/12/31 00:12:30;;;;;;;15.77;10.88;;;4.50;97.80;;;;;;5048716;28;20088;-77
2020/12/31 00:14:57;;;;;;;14.30;10.20;;;4.50;97.70;;;;;;5016106;28;20047;-77
2020/12/31 00:17:23;;;;;;;17.07;10.77;;;4.50;97.70;;;;;;5050045;28;20033;-77
2020/12/31 00:19:50;;;;;;;14.97;10.13;;;4.50;97.70;;;;;;5041598;28;20055;-77
2020/12/31 00:22:16;;;;;;;15.03;9.40;;;4.50;97.80;;;;;;5051090;28;20048;-77
2020/12/31 00:24:43;;;;;;;13.20;9.43;;;4.50;97.70;;;;;;5044421;28;20036;-77
2020/12/31 00:27:09;;;;;;;12.85;9.23;;;4.50;97.70;;;;;;5032600;28;20040;-77
2020/12/31 00:29:36;;;;;;;12.73;7.72;;;4.50;97.70;;;;;;5034011;28;20040;-77
2020/12/31 00:32:02;;;;;;;14.00;8.83;;;4.50;97.70;;;;;;5038446;28;20045;-78
2020/12/31 00:34:29;;;;;;;12.57;9.07;;;4.50;97.70;;;;;;5034537;28;20655;-77
2020/12/31 00:36:58;;;;;;;13.13;8.17;;;4.50;97.70;;;;;;5055914;28;20049;-77
2020/12/31 00:39:25;;;;;;;12.30;7.25;;;4.50;97.80;;;;;;5051891;28;20036;-77
2020/12/31 00:41:52;;;;;;;10.85;8.07;;;4.50;97.60;;;;;;5037173;28;20032;-77
2020/12/31 00:44:19;;;;;;;12.57;9.18;;;4.50;97.70;;;;;;5035672;28;20045;-77
2020/12/31 00:46:46;;;;;;;13.13;8.82;;;4.50;97.60;;;;;;5054521;28;20102;-77
2020/12/31 00:49:12;;;;;;;13.32;8.45;;;4.60;97.70;;;;;;5038462;28;20040;-78
2020/12/31 00:51:39;;;;;;;13.80;9.23;;;4.60;97.60;;;;;;5058701;28;20051;-78
2020/12/31 00:54:06;;;;;;;11.07;7.03;;;4.60;97.60;;;;;;5022623;28;20048;-78
2020/12/31 00:56:33;;;;;;;10.60;6.37;;;4.60;97.60;;;;;;5052336;28;20522;-78
2020/12/31 00:59:00;;;;;;;8.50;6.00;;;4.60;97.60;;;;;;5033949;28;20048;-78
2020/12/31 01:01:29;;;;;;;12.73;8.33;;;4.60;97.60;;;;;;5036134;28;20399;-79
2020/12/31 01:03:56;;;;;;;10.48;7.18;;;4.60;97.60;;;;;;5036780;28;20041;-80
2020/12/31 01:06:24;;;;;;;12.25;8.18;;;4.60;97.60;;;;;;5024707;28;20032;-79
2020/12/31 01:08:50;;;;;;;13.25;8.25;;;4.60;97.60;;;;;;5033292;28;20037;-78
2020/12/31 01:11:18;;;;;;;12.07;8.25;;;4.60;97.50;;;;;;5056074;28;20044;-78
2020/12/31 01:13:45;;;;;;;13.13;7.53;;;4.60;97.50;;;;;;5051486;28;20041;-79
2020/12/31 01:16:11;;;;;;;10.05;6.78;;;4.60;97.60;;;;;;5050515;28;20365;-80
2020/12/31 01:18:38;;;;;;;9.50;6.47;;;4.60;97.60;;;;;;5051954;28;20033;-79
2020/12/31 01:21:09;;;;;;;11.33;6.27;;;4.60;97.60;;;;;;5046420;28;20049;-77
2020/12/31 01:23:36;;;;;;;10.73;6.30;;;4.60;97.60;;;;;;5054677;28;20060;-78
2020/12/31 01:26:03;;;;;;;8.70;6.07;;;4.60;97.50;;;;;;5032979;28;20033;-79
2020/12/31 01:28:29;;;;;;;12.67;6.87;;;4.60;97.50;;;;;;5020785;28;20052;-78
2020/12/31 01:30:55;;;;;;;10.98;6.30;;;4.60;97.50;;;;;;5052107;28;20048;-80
2020/12/31 01:33:22;;;;;;;8.07;5.50;;;4.60;97.50;;;;;;5047227;28;20037;-79
2020/12/31 01:35:48;;;;;;;9.13;6.63;;;4.50;97.50;;;;;;5003538;28;20052;-76
2020/12/31 01:38:15;;;;;;;9.77;6.05;;;4.60;97.60;;;;;;5022297;28;20492;-76
2020/12/31 01:40:48;;;;;;;9.40;6.93;;;4.60;97.50;;;;;;5051132;28;20052;-76
2020/12/31 01:43:14;;;;;;;9.25;6.20;;;4.60;97.50;;;;;;5036362;28;20033;-78
2020/12/31 01:45:41;;;;;;;6.77;4.80;;;4.50;97.50;;;;;;5053453;28;20045;-77
2020/12/31 01:48:08;;;;;;;11.73;7.35;;;4.50;97.50;;;;;;5027774;28;20021;-77
2020/12/31 01:50:35;;;;;;;10.07;7.27;;;4.50;97.50;;;;;;5045682;28;20383;-78
2020/12/31 01:53:01;;;;;;;10.13;6.93;;;4.50;97.50;;;;;;5049042;28;20052;-77
2020/12/31 01:55:28;;;;;;;13.23;8.03;;;4.50;97.50;;;;;;5038684;28;20366;-77
2020/12/31 01:57:55;;;;;;;10.15;6.38;;;4.50;97.50;;;;;;5030072;28;20036;-77
2020/12/31 02:00:21;;;;;;;10.90;7.40;;;4.50;97.50;;;;;;5027902;28;20052;-77
2020/12/31 02:02:48;;;;;;;13.20;9.13;;;4.50;97.50;;;;;;5049636;28;20037;-76
2020/12/31 02:05:15;;;;;;;10.23;6.80;;;4.40;97.50;;;;;;5031995;28;20071;-75
2020/12/31 02:07:46;;;;;;;6.53;5.40;;;4.40;97.50;;;;;;5051211;28;20048;-76
2020/12/31 02:10:15;;;;;;;7.87;6.03;;;4.40;97.50;;;;;;5044689;28;20045;-77
2020/12/31 02:12:42;;;;;;;10.95;6.88;;;4.40;97.50;;;;;;5027858;28;21298;-76
2020/12/31 02:15:14;;;;;;;9.90;7.63;;;4.40;97.60;;;;;;5051744;28;20381;-77
2020/12/31 02:17:43;;;;;;;13.60;8.83;;;4.40;97.60;;;;;;5046943;28;20047;-79
2020/12/31 02:20:12;;;;;;;10.23;8.07;;;4.40;97.50;;;;;;5045230;28;20037;-78
2020/12/31 02:22:38;;;;;;;9.30;7.47;;;4.40;97.50;;;;;;5046640;28;20046;-78
2020/12/31 02:25:05;;;;;;;13.40;8.97;;;4.40;97.60;;;;;;5034252;28;20036;-79
2020/12/31 02:27:33;;;;;;;14.83;9.37;;;4.40;97.60;;;;;;5029475;28;20025;-77
2020/12/31 02:29:59;;;;;;;14.20;10.93;;;4.40;97.50;;;;;;5046291;28;20041;-77
2020/12/31 02:32:26;;;;;;;12.87;9.80;;;4.30;97.40;;;;;;5046151;28;20499;-76
2020/12/31 02:34:52;;;;;;;16.47;12.20;;;4.30;97.50;;;;;;5001651;28;20033;-78
2020/12/31 02:37:19;;;;;;;17.00;12.27;;;4.30;97.40;;;;;;5040011;28;20411;-76
2020/12/31 02:39:45;;;;;;;19.23;13.40;;;4.30;97.50;;;;;;5036651;28;20047;-78
2020/12/31 02:42:12;;;;;;;19.03;12.90;;;4.20;97.50;;;;;;5051390;28;20045;-77
2020/12/31 02:44:38;;;;;;;16.57;13.10;;;4.20;97.50;;;;;;5031582;28;20041;-78
2020/12/31 02:47:05;;;;;;;18.23;12.17;;;4.20;97.50;;;;;;5052832;28;20369;-77
2020/12/31 02:49:31;;;;;;;12.97;9.80;;;4.20;97.60;;;;;;5058132;28;20029;-77
2020/12/31 02:51:58;;;;;;;15.47;11.47;;;4.20;97.60;;;;;;5051312;28;20048;-77
2020/12/31 02:54:24;;;;;;;13.63;10.20;;;4.30;97.70;;;;;;5022062;28;20045;-77
2020/12/31 02:56:51;;;;;;;17.58;12.23;;;4.30;97.70;;;;;;5052406;28;20044;-77
2020/12/31 02:59:17;;;;;;;13.43;9.98;;;4.30;97.70;;;;;;5051796;28;20036;-77
2020/12/31 03:01:43;;;;;;;13.93;9.00;;;4.30;97.70;;;;;;5005850;28;20043;-78
2020/12/31 03:04:10;;;;;;;12.53;8.70;;;4.30;97.70;;;;;;5045599;28;20041;-79
2020/12/31 03:06:36;;;;;;;13.73;10.20;;;4.30;97.90;;;;;;5031635;28;20040;-78
2020/12/31 03:09:03;;;;;;;18.87;11.43;;;4.30;97.70;;;;;;5028341;28;20040;-80
2020/12/31 03:11:30;;;;;;;14.20;10.88;;;4.30;97.70;;;;;;5031944;28;20037;-77
2020/12/31 03:13:56;;;;;;;13.97;9.90;;;4.30;97.60;;;;;;5029999;28;20403;-78
2020/12/31 03:16:23;;;;;;;13.87;9.50;;;4.30;97.60;;;;;;5031302;28;20503;-78
2020/12/31 03:18:49;;;;;;;10.57;8.63;;;4.30;97.70;;;;;;5031790;28;20728;-79
2020/12/31 03:21:16;;;;;;;13.05;9.05;;;4.30;97.70;;;;;;5001879;28;20067;-84
2020/12/31 03:23:42;;;;;;;11.13;8.77;;;4.40;97.70;;;;;;5048255;28;20048;-78
2020/12/31 03:26:09;;;;;;;11.27;8.87;;;4.40;97.70;;;;;;5040747;28;20104;-77
2020/12/31 03:28:36;;;;;;;9.73;7.87;;;4.40;97.70;;;;;;5054534;28;20029;-83
2020/12/31 03:31:02;;;;;;;14.70;11.47;;;4.40;97.70;;;;;;5001933;28;20506;-77
2020/12/31 03:33:29;;;;;;;13.50;10.23;;;4.40;97.70;;;;;;5011710;28;20036;-79
2020/12/31 03:35:55;;;;;;;13.97;10.30;;;4.40;97.70;;;;;;5045964;28;20052;-78
2020/12/31 03:38:22;;;;;;;13.07;9.27;;;4.40;97.60;;;;;;5046604;28;20048;-78
2020/12/31 03:40:49;;;;;;;15.60;11.80;;;4.40;97.60;;;;;;5033323;28;20045;-78
2020/12/31 03:43:16;;;;;;;13.32;10.43;;;4.40;97.60;;;;;;5030662;28;20371;-79
2020/12/31 03:45:43;;;;;;;13.63;10.90;;;4.30;97.60;;;;;;5048865;28;20031;-80
2020/12/31 03:48:10;;;;;;;11.63;9.17;;;4.40;97.60;;;;;;5033637;28;20399;-78
2020/12/31 03:50:38;;;;;;;13.07;9.57;;;4.40;97.70;;;;;;5016356;28;20396;-77
2020/12/31 03:53:05;;;;;;;10.13;8.20;;;4.40;97.70;;;;;;5018078;28;20392;-78
2020/12/31 03:55:32;;;;;;;10.63;7.90;;;4.30;97.70;;;;;;5051940;28;20083;-77
2020/12/31 03:57:59;;;;;;;8.37;6.80;;;4.30;97.70;;;;;;5020671;28;20388;-77
2020/12/31 04:00:26;;;;;;;9.37;7.23;;;4.40;97.70;;;;;;5019432;28;20380;-77
2020/12/31 04:02:52;;;;;;;10.60;8.77;;;4.40;97.70;;;;;;5052504;28;20033;-77
2020/12/31 04:05:19;;;;;;;10.13;8.05;;;4.40;97.70;;;;;;5013999;28;20036;-77
2020/12/31 04:07:45;;;;;;;8.87;7.33;;;4.40;97.70;;;;;;5035787;28;20036;-77
2020/12/31 04:10:12;;;;;;;9.73;7.70;;;4.40;97.70;;;;;;5055982;28;20602;-77
2020/12/31 04:12:38;;;;;;;10.90;8.20;;;4.40;97.70;;;;;;5052683;28;20061;-77
2020/12/31 04:15:05;;;;;;;12.30;8.57;;;4.40;97.70;;;;;;5032961;28;20048;-77
2020/12/31 04:17:31;;;;;;;10.03;7.90;;;4.40;97.70;;;;;;5052971;28;20037;-77
2020/12/31 04:19:58;;;;;;;9.47;7.23;;;4.40;97.70;;;;;;5048441;28;20045;-79
2020/12/31 04:22:25;;;;;;;8.40;6.60;;;4.40;97.70;;;;;;5051271;28;20399;-76
2020/12/31 04:24:51;;;;;;;10.93;7.83;;;4.40;97.70;;;;;;5052653;28;20042;-76
2020/12/31 04:27:20;;;;;;;11.77;9.10;;;4.40;97.70;;;;;;5057055;28;20033;-76
2020/12/31 04:29:47;;;;;;;11.10;8.37;;;4.40;97.60;;;;;;5035331;28;20480;-77
2020/12/31 04:32:13;;;;;;;10.17;7.97;;;4.40;97.60;;;;;;5047229;28;20036;-77
2020/12/31 04:34:40;;;;;;;8.50;7.10;;;4.40;97.60;;;;;;5052575;28;20159;-77
2020/12/31 04:37:06;;;;;;;9.33;6.87;;;4.40;97.70;;;;;;5036853;28;20053;-77
2020/12/31 04:39:33;;;;;;;10.60;7.70;;;4.40;97.70;;;;;;5020283;28;20045;-77
2020/12/31 04:42:00;;;;;;;8.13;6.70;;;4.40;97.70;;;;;;5052300;28;20060;-77
2020/12/31 04:44:27;;;;;;;9.10;6.93;;;4.40;97.70;;;;;;5049068;28;20115;-77
2020/12/31 04:46:57;;;;;;;9.27;7.30;;;4.50;97.70;;;;;;5056158;28;20399;-77
2020/12/31 04:49:29;;;;;;;9.33;7.47;;;4.50;97.70;;;;;;5052021;28;20491;-77
2020/12/31 04:51:56;;;;;;;9.18;5.97;;;4.50;97.70;;;;;;5047877;28;20155;-77
2020/12/31 04:54:23;;;;;;;10.33;6.57;;;4.50;97.70;;;;;;5046712;28;20031;-77
2020/12/31 04:56:50;;;;;;;8.70;5.90;;;4.50;97.70;;;;;;5044135;28;20037;-77
2020/12/31 04:59:17;;;;;;;9.83;7.00;;;4.50;97.70;;;;;;4999050;28;20036;-77
2020/12/31 05:01:45;;;;;;;7.40;5.50;;;4.40;97.70;;;;;;5051471;28;20044;-77
2020/12/31 05:04:14;;;;;;;7.17;4.30;;;4.50;97.70;;;;;;5047470;28;20033;-76
2020/12/31 05:06:44;;;;;;;7.97;6.13;;;4.50;97.70;;;;;;5045561;28;20138;-77
2020/12/31 05:09:19;;;;;;;17.30;13.05;;;4.50;97.70;;;;;;5045488;28;20033;-77
2020/12/31 05:11:47;;;;;;;12.73;9.17;;;4.40;97.60;;;;;;5042969;28;20048;-77
2020/12/31 05:14:35;;;;;;;10.43;7.27;;;4.50;97.60;;;;;;5052057;28;20037;-77
2020/12/31 05:17:19;;;;;;;19.00;12.13;;;4.40;97.60;;;;;;5047175;28;20037;-77
2020/12/31 05:19:46;;;;;;;15.43;9.33;;;4.50;97.70;;;;;;5033500;28;20388;-77
2020/12/31 05:22:20;;;;;;;10.67;7.93;;;4.40;97.60;;;;;;5051300;28;20056;-78
2020/12/31 05:24:48;;;;;;;8.67;6.87;;;4.50;97.70;;;;;;5046139;28;20392;-78
2020/12/31 05:27:26;;;;;;;9.03;5.67;;;4.50;97.60;;;;;;5050598;28;20040;-78
2020/12/31 05:30:08;;;;;;;6.57;5.43;;;4.40;97.60;;;;;;5052372;28;20688;-78
2020/12/31 05:32:40;;;;;;;7.73;6.73;;;4.40;97.60;;;;;;5015003;28;20074;-76
2020/12/31 05:35:16;;;;;;;10.45;7.10;;;4.40;97.60;;;;;;5018101;28;20162;-77
2020/12/31 05:37:43;;;;;;;9.30;6.40;;;4.40;97.60;;;;;;5049429;28;20052;-77
2020/12/31 05:40:12;;;;;;;7.70;5.80;;;4.40;97.60;;;;;;5056722;28;20044;-76
2020/12/31 05:42:40;;;;;;;7.65;5.72;;;4.40;97.60;;;;;;5040017;28;20053;-77
2020/12/31 05:45:14;;;;;;;6.53;4.77;;;4.40;97.70;;;;;;5056051;28;20028;-76
2020/12/31 05:47:49;;;;;;;6.57;4.70;;;4.40;97.70;;;;;;5055124;28;20041;-76
2020/12/31 05:50:24;;;;;;;4.90;4.23;;;4.40;97.70;;;;;;5056522;28;20053;-77
2020/12/31 05:52:52;;;;;;;7.37;5.40;;;4.40;97.70;;;;;;5038763;28;20049;-76
2020/12/31 05:55:21;;;;;;;8.27;5.50;;;4.40;97.70;;;;;;5057024;28;20049;-76
2020/12/31 05:57:51;;;;;;;8.17;5.80;;;4.40;97.70;;;;;;5042526;28;20786;-76
2020/12/31 06:00:24;;;;;;;6.30;3.97;;;4.40;97.70;;;;;;5054904;28;20131;-77
2020/12/31 06:02:58;;;;;;;8.48;5.65;;;4.40;97.60;;;;;;5054916;28;20487;-77
2020/12/31 06:05:26;;;;;;;7.05;4.90;;;4.40;97.60;;;;;;5041293;28;20491;-76
2020/12/31 06:07:57;;;;;;;10.37;5.80;;;4.40;97.60;;;;;;5059637;28;20037;-76
2020/12/31 06:10:26;;;;;;;5.50;4.40;;;4.40;97.70;;;;;;5057540;28;20040;-77
2020/12/31 06:13:05;;;;;;;7.60;4.40;;;4.30;97.60;;;;;;5057415;28;20032;-76
2020/12/31 06:15:40;;;;;;;9.23;4.77;;;4.30;97.60;;;;;;5057914;28;20044;-76
2020/12/31 06:18:07;;;;;;;8.23;5.20;;;4.30;97.60;;;;;;5055640;28;20073;-76
2020/12/31 06:20:38;;;;;;;6.30;4.13;;;4.30;97.60;;;;;;5056945;28;20041;-76
2020/12/31 06:23:07;;;;;;;6.37;3.97;;;4.20;97.50;;;;;;5051461;28;20037;-76
2020/12/31 06:25:45;;;;;;;6.47;4.53;;;4.20;97.50;;;;;;5059470;28;20052;-76
2020/12/31 06:28:20;;;;;;;9.20;4.67;;;4.20;97.60;;;;;;5054930;28;20033;-77
2020/12/31 06:30:52;;;;;;;7.60;5.17;;;4.20;97.50;;;;;;5057463;28;20053;-76
2020/12/31 06:33:25;;;;;;;7.93;5.67;;;4.10;97.50;;;;;;5056036;28;20036;-77
2020/12/31 06:36:02;;;;;;;8.50;4.93;;;4.10;97.60;;;;;;5058108;28;20045;-76
2020/12/31 06:38:32;;;;;;;7.28;4.80;;;4.00;97.60;;;;;;5051431;28;20044;-76
2020/12/31 06:40:59;;;;;;;8.23;5.13;;;4.00;97.60;;;;;;5034248;28;20036;-76
2020/12/31 06:43:34;;;;;;;7.17;4.53;;;4.00;97.60;;;;;;5005624;28;20037;-76
2020/12/31 06:46:15;;;;;;;7.50;5.30;;;4.00;97.60;;;;;;5054199;28;20071;-76
2020/12/31 06:48:41;;;;;;;6.13;4.47;;;4.00;97.60;;;;;;5038998;28;20502;-76
2020/12/31 06:51:10;;;;;;;7.33;4.83;;;4.00;97.60;;;;;;5040542;28;20059;-77
2020/12/31 06:53:47;;;;;;;6.60;4.77;;;4.00;97.60;;;;;;5054149;28;20044;-76
2020/12/31 06:56:14;;;;;;;8.47;5.03;;;4.10;97.60;;;;;;5057653;28;20039;-77
2020/12/31 06:58:42;;;;;;;6.17;4.93;;;4.10;97.60;;;;;;5057281;28;20029;-76
2020/12/31 07:01:26;;;;;;;7.13;4.60;;;4.00;97.50;;;;;;5040201;28;20416;-76
2020/12/31 07:03:55;;;;;;;7.37;5.13;;;4.10;97.60;;;;;;5054650;28;20601;-76
2020/12/31 07:06:21;;;;;;;7.17;5.33;;;4.00;97.50;;;;;;5039275;28;20040;-77
2020/12/31 07:08:48;;;;;;;4.83;3.77;;;4.00;97.50;;;;;;5056194;28;20052;-77
2020/12/31 07:11:27;;;;;;;5.93;4.70;;;4.10;97.60;;;;;;5056960;28;20404;-76
2020/12/31 07:13:53;;;;;;;7.13;6.03;;;4.10;97.60;;;;;;5039524;28;20037;-77
2020/12/31 07:16:39;;;;;;;8.23;5.07;;;4.00;97.50;;;;;;5054226;28;20029;-77
2020/12/31 07:19:07;;;;;;;6.77;5.50;;;4.00;97.50;;;;;;5048095;28;20491;-77
2020/12/31 07:21:36;;;;;;;11.97;6.10;;;4.10;97.50;;;;;;5050451;28;20048;-77
2020/12/31 07:24:22;;;;;;;8.33;6.60;;;4.00;97.40;;;;;;5054567;28;20028;-77
2020/12/31 07:26:49;;;;;;;9.93;7.87;;;4.00;97.40;;;;;;5051279;28;20061;-77
2020/12/31 07:29:29;;;;;;;7.70;6.20;;;4.10;97.40;;;;;;5059967;28;20040;-77
2020/12/31 07:31:57;;;;;;;8.33;6.67;;;4.00;97.40;;;;;;5052658;28;20031;-77
2020/12/31 07:34:32;;;;;;;8.50;6.80;;;4.00;97.40;;;;;;5036924;28;20032;-77
2020/12/31 07:37:03;;;;;;;9.20;5.97;;;4.00;97.30;;;;;;5053933;28;20148;-77
2020/12/31 07:39:31;;;;;;;8.03;5.40;;;4.00;97.30;;;;;;5035040;28;20396;-76
2020/12/31 07:42:24;;;;;;;6.60;4.37;;;3.90;97.30;;;;;;5053514;28;20052;-77
2020/12/31 07:44:55;;;;;;;6.40;3.85;;;3.90;97.20;;;;;;5059305;28;20052;-77
2020/12/31 07:47:23;;;;;;;6.23;3.53;;;3.90;97.20;;;;;;5053047;28;20041;-77
2020/12/31 07:49:52;;;;;;;5.13;3.27;;;3.90;97.20;;;;;;5055366;28;20032;-77
2020/12/31 07:52:20;;;;;;;5.90;3.80;;;3.90;97.30;;;;;;5055575;28;20040;-77
2020/12/31 07:54:46;;;;;;;5.43;2.93;;;3.90;97.20;;;;;;5017853;28;20056;-77
2020/12/31 07:57:14;;;;;;;6.80;2.83;;;3.80;97.20;;;;;;5034430;28;20044;-77
2020/12/31 07:59:46;;;;;;;5.37;2.70;;;3.80;97.20;;;;;;5038828;28;20044;-77
2020/12/31 08:02:16;;;;;;;4.25;2.42;;;3.80;97.20;;;;;;5034916;28;20063;-77
2020/12/31 08:04:43;;;;;;;3.07;1.93;;;3.80;97.20;;;;;;5050707;28;20056;-77
2020/12/31 08:07:18;;;;;;;4.83;2.77;;;3.80;97.50;;;;;;5052873;28;20082;-77
2020/12/31 08:09:49;;;;;;;4.47;2.27;;;3.80;97.20;;;;;;5054493;28;20037;-77
2020/12/31 08:12:16;;;;;;;4.73;2.40;;;3.80;97.20;;;;;;5021868;28;20033;-77
2020/12/31 08:14:45;;;;;;;2.90;2.20;;;3.80;97.30;;;;;;5052302;28;20053;-77
2020/12/31 08:17:13;;;;;;;4.40;2.67;;;3.80;97.30;;;;;;5057736;28;20048;-76
2020/12/31 08:19:41;;;;;;;3.43;2.63;;;3.80;97.30;;;;;;5052023;28;20047;-77
2020/12/31 08:22:22;;;;;;;3.47;1.80;;;3.90;97.30;;;;;;5049811;28;20029;-77
2020/12/31 08:24:57;;;;;;;3.90;2.80;;;3.90;97.30;;;;;;5048457;28;20701;-77
2020/12/31 08:27:24;;;;;;;4.23;2.63;;;4.00;97.40;;;;;;5033236;28;20049;-77
2020/12/31 08:29:53;;;;;;;4.60;2.70;;;4.00;97.30;;;;;;5036621;28;20476;-77
2020/12/31 08:32:25;;;;;;;3.67;2.50;;;4.00;97.30;;;;;;5038309;28;20037;-77
2020/12/31 08:34:54;;;;;;;5.88;2.25;;;4.00;97.30;;;;;;5058335;28;20037;-77
2020/12/31 08:37:23;;;;;;;3.67;2.40;;;4.10;97.30;;;;;;5054026;28;20045;-77
2020/12/31 08:39:51;;;;;;;5.53;2.47;;;4.10;97.30;;;;;;5052476;28;20037;-77
2020/12/31 08:42:24;;;;;;;4.50;2.83;;;4.10;97.30;;;;;;5055516;28;20059;-77
2020/12/31 08:44:53;;;;;;;4.50;3.38;;;4.10;97.30;;;;;;5055651;28;20052;-77
2020/12/31 08:47:21;;;;;;;4.70;3.40;;;4.10;97.30;;;;;;5055985;28;20468;-77
2020/12/31 08:49:52;;;;;;;6.10;3.80;;;4.10;97.20;;;;;;5056088;28;20028;-77
2020/12/31 08:52:22;;;;;;;5.90;3.30;;;4.10;97.20;;;;;;5051465;28;20071;-76
2020/12/31 08:55:05;;;;;;;6.45;4.00;;;4.10;97.20;;;;;;5054361;28;20052;-77
2020/12/31 08:57:31;;;;;;;5.05;3.42;;;4.10;97.10;;;;;;5034707;28;20048;-77
2020/12/31 08:59:58;;;;;;;6.80;3.85;;;4.10;97.10;;;;;;5021081;28;20055;-76
2020/12/31 09:02:24;;;;;;;6.63;4.07;;;4.10;97.10;;;;;;5057974;28;20071;-77
2020/12/31 09:05:14;;;;;;;4.93;3.67;;;4.10;97.10;;;;;;5053802;28;20029;-77
2020/12/31 09:07:41;;;;;;;5.33;3.60;;;4.10;97.10;;;;;;5018740;28;20033;-76
2020/12/31 09:10:16;;;;;;;5.43;4.00;;;4.10;97.00;;;;;;5050017;28;20033;-77
2020/12/31 09:12:45;;;;;;;6.27;3.90;;;4.10;97.00;;;;;;5051141;28;20052;-77
2020/12/31 09:15:19;;;;;;;5.60;3.60;;;4.10;97.00;;;;;;5059538;28;20044;-77
2020/12/31 09:17:47;;;;;;;4.70;3.77;;;4.10;97.00;;;;;;5059317;28;20044;-77
2020/12/31 09:20:25;;;;;;;6.27;3.70;;;4.10;97.00;;;;;;5059816;28;20036;-77
2020/12/31 09:22:52;;;;;;;4.90;3.20;;;4.20;97.00;;;;;;5057263;28;20531;-77
2020/12/31 09:25:20;;;;;;;4.57;3.50;;;4.20;97.00;;;;;;5043778;28;20040;-76
2020/12/31 09:27:46;;;;;;;4.90;3.80;;;4.20;96.80;;;;;;5055128;28;20387;-77
2020/12/31 09:30:16;;;;;;;4.75;4.20;;;4.20;96.80;;;;;;5055499;28;20048;-76
2020/12/31 09:32:47;;;;;;;5.40;3.73;;;4.10;96.80;;;;;;5038092;28;20056;-76
2020/12/31 09:35:14;;;;;;;5.28;4.28;;;4.20;96.80;;;;;;5057763;28;20049;-76
2020/12/31 09:37:50;;;;;;;4.93;3.37;;;4.20;96.80;;;;;;5056160;28;20041;-76
2020/12/31 09:40:17;;;;;;;4.53;4.10;;;4.20;96.80;;;;;;5056392;28;20040;-76
2020/12/31 09:42:44;;;;;;;6.53;4.60;;;4.20;96.80;;;;;;5041289;28;20107;-76
2020/12/31 09:45:11;;;;;;;6.10;4.37;;;4.20;96.70;;;;;;5036362;28;20387;-76
2020/12/31 09:47:38;;;;;;;6.40;4.73;;;4.20;96.60;;;;;;5057875;28;20033;-76
2020/12/31 09:50:06;;;;;;;7.33;5.20;;;4.20;96.60;;;;;;5056627;28;20048;-76
2020/12/31 09:52:33;;;;;;;6.87;4.67;;;4.10;96.50;;;;;;5021456;28;20033;-76
2020/12/31 09:54:59;;;;;;;6.07;4.93;;;4.10;96.60;;;;;;5058141;28;20507;-76
2020/12/31 09:57:26;;;;;;;6.67;4.43;;;4.10;96.60;;;;;;5057166;28;20048;-77
2020/12/31 09:59:53;;;;;;;6.40;4.13;;;4.10;96.60;;;;;;5053854;28;20052;-76
2020/12/31 10:02:19;;;;;;;6.93;4.78;;;4.10;96.70;;;;;;5038326;28;20045;-77
2020/12/31 10:04:46;;;;;;;4.73;4.13;;;4.10;96.70;;;;;;5036719;28;20391;-77
2020/12/31 10:07:12;;;;;;;5.77;4.57;;;4.20;96.70;;;;;;5056302;28;20056;-77
2020/12/31 10:09:39;;;;;;;5.93;4.60;;;4.20;96.60;;;;;;5036286;28;20048;-76
2020/12/31 10:12:05;;;;;;;6.13;4.07;;;4.20;96.60;;;;;;5056388;28;20391;-77
2020/12/31 10:14:32;;;;;;;5.90;4.47;;;4.20;96.60;;;;;;5017477;28;20029;-77
2020/12/31 10:16:59;;;;;;;6.10;4.93;;;4.20;96.70;;;;;;5057333;28;20052;-77
2020/12/31 10:19:26;;;;;;;6.53;4.80;;;4.30;96.70;;;;;;5054731;28;20365;-77
2020/12/31 10:21:52;;;;;;;6.17;5.07;;;4.30;96.60;;;;;;5037728;28;20725;-77
2020/12/31 10:24:19;;;;;;;6.27;5.30;;;4.30;96.60;;;;;;5052515;28;20037;-77
2020/12/31 10:26:46;;;;;;;5.97;4.90;;;4.30;96.50;;;;;;5036282;28;20045;-77
2020/12/31 10:29:14;;;;;;;6.70;4.43;;;4.30;96.50;;;;;;5024547;28;20051;-77
2020/12/31 10:31:42;;;;;;;6.20;5.03;;;4.30;96.50;;;;;;5040072;28;20040;-77
2020/12/31 10:34:10;;;;;;;5.10;4.17;;;4.30;96.50;;;;;;5033056;28;20063;-77
2020/12/31 10:36:37;;;;;;;4.50;3.60;;;4.30;96.50;;;;;;5038025;28;20052;-77
2020/12/31 10:39:05;;;;;;;4.43;3.00;;;4.40;96.60;;;;;;5053863;28;20060;-77
2020/12/31 10:41:31;;;;;;;3.87;2.33;;;4.40;96.50;;;;;;5058644;28;20036;-77
2020/12/31 10:43:58;;;;;;;4.70;3.50;;;4.40;96.50;;;;;;5035674;28;20059;-77
2020/12/31 10:46:26;;;;;;;4.50;3.73;;;4.40;96.50;;;;;;5059990;28;20029;-76
2020/12/31 10:48:53;;;;;;;5.60;3.50;;;4.50;96.50;;;;;;5017563;28;20029;-77
2020/12/31 10:51:20;;;;;;;4.13;3.43;;;4.50;96.50;;;;;;5060146;28;20049;-77
2020/12/31 10:53:46;;;;;;;4.72;3.60;;;4.60;96.50;;;;;;5053636;28;20052;-77
2020/12/31 10:56:20;;;;;;;6.70;4.10;;;4.60;96.40;;;;;;5036759;28;20036;-77
2020/12/31 10:58:47;;;;;;;6.03;3.80;;;4.60;96.30;;;;;;5034062;28;20037;-77
2020/12/31 11:01:14;;;;;;;5.03;3.92;;;4.60;96.30;;;;;;5052168;28;20037;-77
2020/12/31 11:03:44;;;;;;;6.95;3.60;;;4.70;96.30;;;;;;5053017;28;20399;-76
2020/12/31 11:06:18;;;;;;;4.53;4.13;;;4.70;96.30;;;;;;5052721;28;20510;-79
2020/12/31 11:08:44;;;;;;;5.07;4.20;;;4.80;96.30;;;;;;5048622;28;20052;-77
2020/12/31 11:11:19;;;;;;;6.22;5.03;;;4.80;96.30;;;;;;5050382;28;20492;-81
2020/12/31 11:13:46;;;;;;;6.93;5.07;;;4.90;96.20;;;;;;5034067;28;20056;-80
2020/12/31 11:16:14;;;;;;;6.57;4.38;;;4.90;96.20;;;;;;5051137;28;20044;-81
2020/12/31 11:18:41;;;;;;;6.88;5.30;;;5.00;96.20;;;;;;5034515;28;20040;-78
2020/12/31 11:21:08;;;;;;;5.25;4.47;;;5.00;96.20;;;;;;5051870;28;20063;-77
2020/12/31 11:23:35;;;;;;;8.38;5.13;;;5.00;96.20;;;;;;5033676;28;20542;-78
2020/12/31 11:26:08;;;;;;;6.32;5.35;;;5.10;96.20;;;;;;5054568;28;20033;-76
2020/12/31 11:28:34;;;;;;;7.75;5.07;;;5.20;96.20;;;;;;5053291;28;20044;-80
2020/12/31 11:31:01;;;;;;;5.07;4.43;;;5.20;96.10;;;;;;5031713;28;20053;-79
2020/12/31 11:33:27;;;;;;;5.30;4.38;;;5.20;96.00;;;;;;5032268;28;20397;-82
2020/12/31 11:35:53;;;;;;;6.85;5.05;;;5.30;96.00;;;;;;5036897;28;20049;-78
2020/12/31 11:38:20;;;;;;;15.35;11.40;;;5.30;96.00;;;;;;5056683;28;20044;-78
2020/12/31 11:40:47;;;;;;;8.93;6.95;;;5.40;96.10;;;;;;5036836;28;20055;-77
2020/12/31 11:43:13;;;;;;;6.65;5.20;;;5.50;96.10;;;;;;5034444;28;20033;-78
2020/12/31 11:45:40;;;;;;;6.18;5.03;;;5.60;96.10;;;;;;5019515;28;20434;-79
2020/12/31 11:48:06;;;;;;;5.55;4.53;;;5.70;96.00;;;;;;5032506;28;20040;-78
2020/12/31 11:50:33;;;;;;;6.10;4.68;;;5.70;95.90;;;;;;5034200;28;20373;-78
2020/12/31 11:53:00;;;;;;;5.45;4.93;;;5.80;95.80;;;;;;5035395;28;20052;-78
2020/12/31 11:55:27;;;;;;;6.53;3.85;;;5.90;95.80;;;;;;5030379;28;20408;-78
2020/12/31 11:57:54;;;;;;;6.22;4.47;;;5.90;95.70;;;;;;5053623;28;20053;-78
2020/12/31 12:00:21;;;;;;;5.60;4.60;;;5.90;95.60;;;;;;5048800;28;20037;-83
2020/12/31 12:02:47;;;;;;;5.70;4.60;;;6.00;95.60;;;;;;5018531;28;20668;-84
2020/12/31 12:05:14;;;;;;;15.07;12.00;;;6.00;95.50;;;;;;5018147;28;20047;-78
2020/12/31 12:07:41;;;;;;;9.10;7.40;;;6.00;95.60;;;;;;5055693;28;20082;-78
2020/12/31 12:10:08;;;;;;;7.93;5.85;;;6.10;95.50;;;;;;5018776;28;20029;-76
2020/12/31 12:12:34;;;;;;;6.03;4.80;;;6.10;95.50;;;;;;5050549;28;20163;-77
2020/12/31 12:15:01;;;;;;;6.20;4.82;;;6.20;95.40;;;;;;5035919;28;20056;-76
2020/12/31 12:17:27;;;;;;;8.15;5.10;;;6.20;95.30;;;;;;5052785;28;20037;-76
2020/12/31 12:19:54;;;;;;;7.68;5.00;;;6.10;95.20;;;;;;5055339;28;20234;-76
2020/12/31 12:22:20;;;;;;;5.07;3.75;;;6.10;95.20;;;;;;5053682;28;20048;-76
2020/12/31 12:24:47;;;;;;;7.35;4.60;;;6.10;95.50;;;;;;5050832;28;20412;-76
2020/12/31 12:27:13;;;;;;;5.00;4.32;;;6.10;95.20;;;;;;5049010;28;20067;-76
2020/12/31 12:29:40;;;;;;;5.32;4.70;;;6.00;95.30;;;;;;5030492;28;20490;-76
2020/12/31 12:32:10;;;;;;;8.10;5.10;;;6.00;95.30;;;;;;5049392;28;20033;-76
2020/12/31 12:34:38;;;;;;;7.28;5.65;;;5.90;95.20;;;;;;5048514;28;20048;-76
2020/12/31 12:37:05;;;;;;;7.53;5.38;;;5.90;95.10;;;;;;5057030;28;20068;-76
2020/12/31 12:39:31;;;;;;;6.38;5.60;;;5.80;95.00;;;;;;5042598;28;20416;-76
2020/12/31 12:41:58;;;;;;;6.20;5.00;;;5.70;95.10;;;;;;5038139;28;20043;-76
2020/12/31 12:44:25;;;;;;;7.45;5.63;;;5.70;95.20;;;;;;5058973;28;20060;-76
2020/12/31 12:46:52;;;;;;;5.88;4.65;;;5.70;95.30;;;;;;5059626;28;20395;-75
2020/12/31 12:49:18;;;;;;;8.10;6.68;;;5.60;95.30;;;;;;5063454;28;20044;-76
2020/12/31 12:51:45;;;;;;;9.45;5.95;;;5.60;95.30;;;;;;5058841;28;20052;-76
2020/12/31 12:54:11;;;;;;;9.85;7.75;;;5.50;95.30;;;;;;5042675;28;20049;-76
2020/12/31 12:56:38;;;;;;;11.13;7.85;;;5.50;95.40;;;;;;5042513;28;20391;-76
2020/12/31 12:59:04;;;;;;;10.70;7.70;;;5.40;95.40;;;;;;5044464;28;20419;-75